This is the latest recevied weather packets stored in our database for station/object OE3PDB-10. If no packets are shown the sender has not sent any weather packets the latest 10 day(s).
| Time | Temp. | Humidity | Pressure | Rain* | Wind** | Luminosity | Snow |
|---|---|---|---|---|---|---|---|
| 1777833046 | 18.89° C | 40% | 1111 hPa | 0 mm | - | - | - |
| 1777827647 | 21.11° C | 36% | 1111 hPa | 0 mm | - | - | - |
| 1777827047 | 21.67° C | 36% | 1111 hPa | 0 mm | - | - | - |
| 1777826447 | 21.67° C | 35% | 1111 hPa | 0 mm | - | - | - |
| 1777825847 | 21.67° C | 35% | 1111 hPa | 0 mm | - | - | - |
| 1777825247 | 22.22° C | 34% | 1111 hPa | 0 mm | - | - | - |
| 1777824047 | 22.78° C | 34% | 1111 hPa | 0 mm | - | - | - |
| 1777823447 | 22.78° C | 34% | 1111 hPa | 0 mm | - | - | - |
| 1777822847 | 22.78° C | 34% | 1111 hPa | 0 mm | - | - | - |
| 1777822247 | 22.78° C | 33% | 1111 hPa | 0 mm | - | - | - |
| 1777821647 | 23.33° C | 33% | 1111 hPa | 0 mm | - | - | - |
| 1777821047 | 23.33° C | 33% | 1111 hPa | 0 mm | - | - | - |
| 1777820447 | 23.33° C | 33% | 1111 hPa | 0 mm | - | - | - |
| 1777819847 | 23.89° C | 33% | 1111 hPa | 0 mm | - | - | - |
| 1777818047 | 23.89° C | 33% | 1111 hPa | 0 mm | - | - | - |
| 1777816847 | 23.89° C | 33% | 1111 hPa | 0 mm | - | - | - |
| 1777811447 | 22.78° C | 35% | 1111 hPa | 0 mm | - | - | - |
| 1777806647 | 21.11° C | 41% | 1111 hPa | 0 mm | - | - | - |
| 1777803047 | 20° C | 44% | 1111 hPa | 0 mm | - | - | - |
| 1777801247 | 19.44° C | 44% | 1111 hPa | 0 mm | - | - | - |
| 1777800647 | 19.44° C | 45% | 1111 hPa | 0 mm | - | - | - |
| 1777800047 | 18.89° C | 46% | 1111 hPa | 0 mm | - | - | - |
| 1777799447 | 18.89° C | 46% | 1111 hPa | 0 mm | - | - | - |
| 1777798847 | 18.89° C | 46% | 1111 hPa | 0 mm | - | - | - |
| 1777797647 | 18.33° C | 48% | 1111 hPa | 0 mm | - | - | - |
* Rain latest hour (hover to see other rain measurements)
** Current wind speed in m/s (hover to see current wind gust speed)